createdAt,value
2018-06-03T00:00:29.953Z,7.58
2018-06-03T00:02:58.654Z,6.97
2018-06-03T00:05:27.538Z,6.90
2018-06-03T00:07:56.307Z,7.17
2018-06-03T00:10:24.988Z,6.17
2018-06-03T00:12:54.080Z,5.78
2018-06-03T00:15:22.742Z,6.47
2018-06-03T00:17:51.421Z,7.03
2018-06-03T00:20:29.864Z,6.50
2018-06-03T00:22:58.598Z,5.27
2018-06-03T00:25:27.338Z,5.83
2018-06-03T00:27:56.128Z,6.37
2018-06-03T00:30:24.807Z,8.47
2018-06-03T00:32:53.481Z,6.97
2018-06-03T00:35:22.133Z,5.60
2018-06-03T00:37:50.832Z,7.62
2018-06-03T00:40:19.557Z,6.57
2018-06-03T00:42:48.242Z,9.73
2018-06-03T00:45:16.937Z,5.30
2018-06-03T00:47:46.645Z,7.30
2018-06-03T00:50:15.375Z,6.57
2018-06-03T00:52:44.127Z,8.23
2018-06-03T00:55:12.803Z,5.50
2018-06-03T00:57:41.599Z,6.23
2018-06-03T01:00:10.158Z,7.25
2018-06-03T01:02:38.859Z,8.60
2018-06-03T01:05:07.542Z,6.53
2018-06-03T01:07:36.212Z,7.70
2018-06-03T01:10:05.018Z,5.10
2018-06-03T01:12:33.665Z,5.47
2018-06-03T01:15:02.322Z,5.95
2018-06-03T01:17:31.050Z,7.67
2018-06-03T01:19:59.697Z,7.30
2018-06-03T01:22:28.447Z,5.65
2018-06-03T01:24:57.207Z,5.57
2018-06-03T01:27:25.855Z,6.87
2018-06-03T01:29:55.505Z,6.20
2018-06-03T01:32:24.194Z,5.03
2018-06-03T01:34:52.944Z,5.17
2018-06-03T01:37:21.888Z,7.77
2018-06-03T01:39:50.579Z,6.83
2018-06-03T01:42:19.219Z,6.33
2018-06-03T01:44:47.895Z,5.77
2018-06-03T01:47:16.644Z,6.97
2018-06-03T01:49:45.624Z,6.20
2018-06-03T01:52:14.202Z,4.97
2018-06-03T01:54:42.956Z,6.23
2018-06-03T01:57:11.700Z,8.87
2018-06-03T01:59:40.407Z,6.17
2018-06-03T02:02:09.063Z,5.73
2018-06-03T02:04:37.785Z,6.33
2018-06-03T02:07:06.437Z,4.97
2018-06-03T02:09:35.117Z,5.73
2018-06-03T02:12:03.919Z,6.53
2018-06-03T02:14:32.670Z,7.00
2018-06-03T02:17:01.350Z,5.03
2018-06-03T02:19:29.974Z,5.33
2018-06-03T02:21:58.703Z,4.97
2018-06-03T02:24:27.439Z,6.30
2018-06-03T02:26:56.233Z,5.43
2018-06-03T02:29:24.915Z,5.30
2018-06-03T02:31:53.526Z,6.03
2018-06-03T02:34:22.157Z,7.00
2018-06-03T02:36:50.867Z,5.23
2018-06-03T02:39:19.518Z,5.30
2018-06-03T02:41:48.245Z,7.10
2018-06-03T02:44:16.923Z,6.43
2018-06-03T02:46:45.818Z,5.35
2018-06-03T02:49:14.474Z,5.93
2018-06-03T02:51:43.203Z,6.17
2018-06-03T02:54:11.933Z,6.07
2018-06-03T02:56:40.629Z,8.10
2018-06-03T02:59:09.538Z,6.03
2018-06-03T03:01:38.217Z,5.30
2018-06-03T06:13:28.932Z,4.40
2018-06-03T06:15:57.429Z,5.00
2018-06-03T06:18:25.903Z,4.72
2018-06-03T06:20:54.726Z,6.13
2018-06-03T06:23:23.190Z,5.23
2018-06-03T06:25:51.707Z,5.23
2018-06-03T06:28:20.182Z,4.90
2018-06-03T06:30:48.689Z,5.13
2018-06-03T06:33:17.169Z,4.03
2018-06-03T06:35:45.940Z,5.40
2018-06-03T06:38:15.166Z,5.03
2018-06-03T06:40:43.725Z,4.77
2018-06-03T06:43:12.171Z,5.47
2018-06-03T06:45:40.676Z,5.83
2018-06-03T06:48:09.165Z,4.50
2018-06-03T06:50:37.667Z,4.53
2018-06-03T06:53:06.182Z,4.23
2018-06-03T06:55:34.670Z,4.40
2018-06-03T06:58:03.150Z,6.00
2018-06-03T07:00:31.665Z,5.20
2018-06-03T07:03:00.143Z,4.70
2018-06-03T07:05:28.950Z,4.03
2018-06-03T07:07:57.469Z,5.23
2018-06-03T07:10:26.007Z,4.03
2018-06-03T07:12:54.481Z,4.13
2018-06-03T07:15:23.389Z,3.93
2018-06-03T07:17:51.886Z,5.50
2018-06-03T07:20:20.364Z,3.70
2018-06-03T07:22:49.182Z,4.77
2018-06-03T07:25:17.699Z,4.17
2018-06-03T07:27:46.211Z,3.33
2018-06-03T07:30:15.374Z,4.03
2018-06-03T07:32:43.886Z,4.17
2018-06-03T07:35:12.368Z,4.60
2018-06-03T07:37:41.467Z,4.37
2018-06-03T07:40:09.949Z,4.70
2018-06-03T07:42:38.493Z,3.83
2018-06-03T07:45:07.015Z,4.30
2018-06-03T07:47:35.519Z,4.43
2018-06-03T07:50:04.059Z,3.70
2018-06-03T07:52:32.549Z,4.40
2018-06-03T07:55:01.062Z,4.30
2018-06-03T07:57:29.575Z,4.20
2018-06-03T07:59:58.125Z,4.00
2018-06-03T08:02:26.639Z,4.03
2018-06-03T08:04:56.296Z,3.70
2018-06-03T08:07:29.624Z,4.83
2018-06-03T08:09:58.122Z,3.77
2018-06-03T08:12:26.736Z,4.57
2018-06-03T08:14:55.248Z,3.37
2018-06-03T08:17:24.914Z,3.20
2018-06-03T08:19:53.386Z,4.13
2018-06-03T08:22:21.891Z,3.70
2018-06-03T08:24:50.371Z,4.93
2018-06-03T08:27:18.879Z,3.20
2018-06-03T08:29:47.407Z,3.30
2018-06-03T08:32:16.255Z,4.47
2018-06-03T08:34:44.749Z,3.10
2018-06-03T08:37:13.259Z,3.23
2018-06-03T08:39:41.739Z,10.73
2018-06-03T08:42:10.271Z,3.00
2018-06-03T08:44:38.786Z,3.20
2018-06-03T08:47:07.262Z,3.00
2018-06-03T08:49:35.778Z,3.97
2018-06-03T08:52:04.315Z,2.80
2018-06-03T08:54:32.815Z,3.13
2018-06-03T08:57:01.302Z,3.10
2018-06-03T08:59:29.808Z,2.80
2018-06-03T09:01:58.315Z,3.00
2018-06-03T09:04:26.811Z,3.33
2018-06-03T09:06:55.301Z,3.20
2018-06-03T09:09:23.802Z,3.10
2018-06-03T09:11:52.293Z,2.47
2018-06-03T09:14:20.791Z,2.93
2018-06-03T09:16:51.490Z,2.97
2018-06-03T09:19:20.141Z,3.30
2018-06-03T09:21:48.608Z,2.73
2018-06-03T09:24:17.123Z,3.30
2018-06-03T09:26:47.612Z,2.90
2018-06-03T09:29:16.416Z,2.92
2018-06-03T09:31:44.884Z,2.67
2018-06-03T09:34:13.379Z,2.90
2018-06-03T09:36:41.859Z,2.90
2018-06-03T09:39:11.367Z,3.50
2018-06-03T09:41:43.287Z,2.33
2018-06-03T09:44:11.795Z,2.70
2018-06-03T09:46:40.271Z,2.57
2018-06-03T09:49:09.493Z,2.40
2018-06-03T09:51:37.974Z,2.53
2018-06-03T09:54:06.798Z,2.40
2018-06-03T09:56:35.555Z,2.40
2018-06-03T09:59:04.083Z,2.50
2018-06-03T10:01:32.567Z,2.97
2018-06-03T10:04:01.413Z,2.65
2018-06-03T10:06:29.886Z,2.37
2018-06-03T10:08:59.525Z,2.50
2018-06-03T10:11:28.311Z,2.70
2018-06-03T10:13:56.823Z,2.90
2018-06-03T10:16:25.319Z,2.37
2018-06-03T10:18:53.842Z,2.80
2018-06-03T10:21:22.371Z,4.93
2018-06-03T10:23:50.885Z,2.60
2018-06-03T10:26:19.354Z,2.43
2018-06-03T10:28:47.866Z,2.50
2018-06-03T10:31:27.685Z,2.58
2018-06-03T10:33:56.550Z,2.30
2018-06-03T10:36:25.954Z,2.23
2018-06-03T10:38:54.735Z,2.20
2018-06-03T10:41:23.223Z,2.73
2018-06-03T10:43:51.711Z,2.30
2018-06-03T10:46:20.223Z,2.10
2018-06-03T10:48:48.682Z,2.73
2018-06-03T10:51:17.803Z,2.20
2018-06-03T10:53:48.567Z,2.80
2018-06-03T10:56:17.141Z,2.80
2018-06-03T10:58:45.635Z,2.20
2018-06-03T11:01:14.139Z,2.30
2018-06-03T11:03:42.637Z,2.03
2018-06-03T11:06:11.164Z,2.97
2018-06-03T11:08:39.646Z,1.90
2018-06-03T11:11:08.178Z,1.83
2018-06-03T11:13:36.654Z,1.40
2018-06-03T11:16:05.171Z,3.10
2018-06-03T11:18:33.647Z,2.10
2018-06-03T11:21:02.155Z,2.27
2018-06-03T11:23:30.615Z,2.23
2018-06-03T11:26:00.636Z,2.10
2018-06-03T11:28:29.130Z,1.97
2018-06-03T11:30:57.634Z,2.23
2018-06-03T11:33:26.130Z,1.87
2018-06-03T11:35:54.642Z,2.10
2018-06-03T11:38:23.106Z,2.10
2018-06-03T11:40:51.612Z,2.87
2018-06-03T11:43:20.079Z,2.27
2018-06-03T11:45:48.575Z,2.13
2018-06-03T11:48:17.374Z,4.20
2018-06-03T11:50:45.862Z,2.73
2018-06-03T11:53:14.359Z,2.50
2018-06-03T11:55:42.858Z,2.80
2018-06-03T11:59:47.547Z,2.40
2018-06-03T12:02:17.487Z,2.13
2018-06-03T12:04:45.953Z,2.40
2018-06-03T12:07:14.462Z,2.37
2018-06-03T12:09:42.926Z,2.67
2018-06-03T12:12:11.431Z,2.30
2018-06-03T12:14:39.894Z,2.20
2018-06-03T12:17:08.394Z,2.20
2018-06-03T12:19:36.854Z,2.30
2018-06-03T12:22:08.394Z,2.33
2018-06-03T12:24:36.875Z,2.17
2018-06-03T12:27:05.386Z,2.00
2018-06-03T12:29:33.860Z,2.43
2018-06-03T12:32:02.363Z,3.77
2018-06-03T12:34:30.838Z,3.80
2018-06-03T12:36:59.332Z,2.53
2018-06-03T12:39:27.799Z,2.50
2018-06-03T12:41:56.372Z,2.47
2018-06-03T12:44:24.806Z,2.90
2018-06-03T12:46:53.306Z,1.70
2018-06-03T12:49:21.782Z,2.20
2018-06-03T12:51:50.280Z,1.93
2018-06-03T12:54:18.947Z,2.70
2018-06-03T12:56:47.438Z,2.40
2018-06-03T12:59:21.823Z,2.27
2018-06-03T13:01:57.675Z,4.97
2018-06-03T13:04:34.029Z,1.90
2018-06-03T13:07:07.556Z,2.20
2018-06-03T13:09:41.021Z,2.00
2018-06-03T13:12:09.738Z,2.10
2018-06-03T13:14:38.222Z,1.80
2018-06-03T13:17:06.767Z,2.20
2018-06-03T13:19:35.248Z,2.73
2018-06-03T13:22:03.751Z,2.27
2018-06-03T13:24:32.211Z,2.40
2018-06-03T13:27:00.707Z,2.00
2018-06-03T13:29:29.202Z,2.00
2018-06-03T13:31:57.762Z,2.20
2018-06-03T13:34:26.195Z,2.00
2018-06-03T13:36:54.662Z,1.90
2018-06-03T13:39:23.166Z,2.03
2018-06-03T13:41:51.638Z,2.33
2018-06-03T13:44:20.141Z,1.80
2018-06-03T13:46:49.012Z,2.20
2018-06-03T13:49:17.510Z,3.17
2018-06-03T13:51:45.987Z,1.90
2018-06-03T13:54:14.525Z,2.33
2018-06-03T13:56:42.993Z,2.30
2018-06-03T13:59:11.484Z,1.90
2018-06-03T14:01:39.947Z,2.03
2018-06-03T14:04:08.446Z,2.30
2018-06-03T14:06:36.910Z,2.27
2018-06-03T14:09:06.851Z,2.30
2018-06-03T14:11:35.311Z,2.40
2018-06-03T14:14:03.814Z,1.93
2018-06-03T14:16:32.278Z,2.10
2018-06-03T14:19:00.782Z,2.20
2018-06-03T14:21:29.261Z,1.70
2018-06-03T14:23:57.754Z,1.90
2018-06-03T14:26:26.217Z,1.93
2018-06-03T14:28:54.710Z,1.77
2018-06-03T14:31:23.194Z,2.00
2018-06-03T14:33:54.927Z,2.57
2018-06-03T14:36:23.569Z,2.27
2018-06-03T14:38:52.114Z,2.00
2018-06-03T14:41:20.606Z,2.70
2018-06-03T14:43:49.290Z,2.35
2018-06-03T14:46:17.761Z,1.87
2018-06-03T14:48:46.596Z,2.30
2018-06-03T14:51:15.075Z,2.00
2018-06-03T14:53:43.598Z,2.40
2018-06-03T14:56:12.082Z,2.20
2018-06-03T14:58:40.556Z,2.07
2018-06-03T15:01:09.022Z,2.13
2018-06-03T15:03:37.520Z,1.97
2018-06-03T15:06:06.379Z,2.07
2018-06-03T15:08:34.870Z,2.35
2018-06-03T15:11:03.326Z,2.17
2018-06-03T15:13:31.814Z,1.90
2018-06-03T15:16:00.279Z,2.37
2018-06-03T15:18:28.769Z,2.13
2018-06-03T15:20:57.266Z,2.00
2018-06-03T15:23:25.767Z,2.37
2018-06-03T15:25:54.430Z,2.40
2018-06-03T15:28:22.913Z,2.20
2018-06-03T15:30:51.756Z,2.67
2018-06-03T15:33:20.234Z,2.00
2018-06-03T15:35:49.433Z,2.58
2018-06-03T15:38:17.907Z,2.50
2018-06-03T15:40:46.394Z,1.70
2018-06-03T15:43:14.860Z,2.20
2018-06-03T15:45:43.354Z,2.27
2018-06-03T15:48:11.818Z,1.87
2018-06-03T15:50:40.337Z,2.07
2018-06-03T15:53:08.835Z,1.73
2018-06-03T15:55:37.340Z,1.80
2018-06-03T15:58:05.809Z,1.80
2018-06-03T16:00:34.303Z,1.73
2018-06-03T16:03:02.847Z,1.93
2018-06-03T16:05:31.317Z,2.00
2018-06-03T16:08:00.156Z,2.47
2018-06-03T16:10:28.663Z,1.93
2018-06-03T16:12:57.175Z,1.97
2018-06-03T16:15:25.681Z,2.73
2018-06-03T16:17:54.149Z,2.10
2018-06-03T16:20:22.653Z,2.10
2018-06-03T16:22:51.145Z,2.10
2018-06-03T16:25:19.642Z,2.43
2018-06-03T16:27:48.113Z,1.90
2018-06-03T16:30:16.623Z,2.17
2018-06-03T16:32:45.083Z,1.90
2018-06-03T16:35:14.707Z,3.03
2018-06-03T16:37:43.264Z,2.37
2018-06-03T16:40:11.740Z,2.30
2018-06-03T16:42:40.231Z,1.70
2018-06-03T16:45:10.898Z,2.23
2018-06-03T16:47:39.401Z,2.20
2018-06-03T16:50:07.919Z,1.90
2018-06-03T16:52:37.326Z,1.77
2018-06-03T16:55:05.875Z,2.47
2018-06-03T16:57:35.384Z,2.00
2018-06-03T17:00:04.262Z,1.90
2018-06-03T17:02:32.982Z,2.17
2018-06-03T17:05:07.271Z,2.23
2018-06-03T17:07:37.175Z,3.23
2018-06-03T17:10:05.651Z,3.37
2018-06-03T17:12:34.150Z,2.22
2018-06-03T17:15:02.643Z,2.17
2018-06-03T17:17:31.887Z,2.07
2018-06-03T17:20:00.346Z,2.13
2018-06-03T17:22:28.848Z,2.33
2018-06-03T17:24:57.314Z,2.30
2018-06-03T17:27:26.395Z,3.15
2018-06-03T17:29:54.849Z,2.43
2018-06-03T17:32:23.341Z,2.60
2018-06-03T17:34:52.215Z,2.63
2018-06-03T17:37:20.727Z,2.93
2018-06-03T17:39:49.851Z,3.00
2018-06-03T17:42:18.356Z,2.43
2018-06-03T17:44:46.890Z,2.30
2018-06-03T17:47:16.156Z,2.37
2018-06-03T17:49:44.674Z,2.20
2018-06-03T17:52:13.167Z,2.90
2018-06-03T17:54:41.653Z,2.43
2018-06-03T17:57:10.273Z,2.63
2018-06-03T17:59:38.882Z,2.27
2018-06-03T18:02:07.402Z,2.80
2018-06-03T18:04:35.910Z,2.50
2018-06-03T18:07:04.389Z,2.30
2018-06-03T18:09:32.891Z,2.20
2018-06-03T18:12:01.362Z,2.77
2018-06-03T18:14:29.870Z,3.57
2018-06-03T18:16:58.365Z,2.60
2018-06-03T18:19:26.850Z,2.40
2018-06-03T18:21:57.111Z,3.13
2018-06-03T18:24:25.609Z,2.77
2018-06-03T18:26:54.078Z,3.23
2018-06-03T18:29:22.568Z,3.43
2018-06-03T18:31:52.419Z,2.80
2018-06-03T18:34:21.666Z,2.40
2018-06-03T18:36:50.446Z,2.67
2018-06-03T18:39:18.954Z,2.30
2018-06-03T18:41:48.715Z,2.63
2018-06-03T18:44:17.212Z,2.97
2018-06-03T18:46:46.344Z,2.93
2018-06-03T18:49:14.847Z,2.23
2018-06-03T18:51:53.931Z,2.40
2018-06-03T18:54:22.559Z,2.83
2018-06-03T18:56:51.667Z,2.80
2018-06-03T18:59:20.182Z,2.77
2018-06-03T19:01:48.666Z,2.63
2018-06-03T19:04:17.246Z,3.77
2018-06-03T19:06:47.675Z,3.23
2018-06-03T19:09:16.142Z,3.10
2018-06-03T19:11:52.929Z,2.80
2018-06-03T19:14:21.657Z,2.87
2018-06-03T19:16:50.131Z,3.10
2018-06-03T19:19:18.614Z,2.77
2018-06-03T19:21:47.110Z,3.10
2018-06-03T19:24:15.575Z,3.13
2018-06-03T19:27:08.355Z,2.60
2018-06-03T19:29:41.611Z,3.33
2018-06-03T19:32:19.388Z,3.20
2018-06-03T19:34:49.475Z,3.73
2018-06-03T19:37:18.039Z,3.50
2018-06-03T19:39:46.566Z,3.60
2018-06-03T19:42:15.163Z,3.73
2018-06-03T19:44:43.794Z,3.27
2018-06-03T19:47:12.513Z,3.37
2018-06-03T19:49:41.206Z,3.20
2018-06-03T19:52:09.839Z,3.20
2018-06-03T19:54:38.566Z,3.70
2018-06-03T19:57:07.086Z,4.63
2018-06-03T19:59:35.560Z,3.33
2018-06-03T20:02:04.075Z,3.83
2018-06-03T20:04:32.624Z,4.27
2018-06-03T20:07:01.138Z,3.70
2018-06-03T20:09:29.678Z,7.47
2018-06-03T20:11:59.198Z,4.70
2018-06-03T20:14:27.662Z,3.83
2018-06-03T20:16:56.228Z,3.80
2018-06-03T20:19:24.711Z,3.80
2018-06-03T20:21:53.282Z,3.70
2018-06-03T20:24:21.751Z,3.50
2018-06-03T20:26:50.581Z,5.23
2018-06-03T20:29:19.113Z,3.67
2018-06-03T20:31:47.578Z,3.60
2018-06-03T20:34:16.095Z,19.67
2018-06-03T20:36:44.566Z,4.60
2018-06-03T20:39:13.119Z,4.33
2018-06-03T20:41:41.634Z,4.30
2018-06-03T20:44:14.591Z,4.20
2018-06-03T20:46:43.322Z,4.20
2018-06-03T20:49:11.886Z,4.07
2018-06-03T20:51:41.049Z,4.47
2018-06-03T20:54:12.662Z,4.13
2018-06-03T20:56:42.798Z,4.30
2018-06-03T20:59:11.381Z,4.37
2018-06-03T21:01:40.517Z,4.43
2018-06-03T21:04:09.105Z,3.80
2018-06-03T21:06:37.579Z,5.67
2018-06-03T21:09:08.479Z,4.47
2018-06-03T21:11:36.990Z,7.70
2018-06-03T21:14:05.582Z,4.53
2018-06-03T21:16:34.046Z,5.20
2018-06-03T21:19:02.542Z,6.00
2018-06-03T21:21:31.026Z,5.12
2018-06-03T21:23:59.530Z,6.33
2018-06-03T21:26:28.007Z,4.53
2018-06-03T21:28:56.508Z,4.90
2018-06-03T21:31:25.040Z,6.63
2018-06-03T21:34:00.899Z,5.07
2018-06-03T21:36:30.582Z,4.65
2018-06-03T21:39:00.409Z,4.00
2018-06-03T21:41:34.877Z,4.85
2018-06-03T21:46:50.742Z,6.47
2018-06-03T21:49:20.527Z,5.03
2018-06-03T21:51:50.288Z,5.40
2018-06-03T21:54:20.203Z,4.90
2018-06-03T21:56:50.661Z,4.80
2018-06-03T21:59:23.987Z,4.80
2018-06-03T22:01:54.521Z,4.37
2018-06-03T22:04:23.836Z,5.00
2018-06-03T22:06:54.959Z,4.90
2018-06-03T22:09:28.426Z,5.00
2018-06-03T22:11:57.733Z,5.50
2018-06-03T22:14:36.004Z,5.85
2018-06-03T22:17:05.818Z,5.83
2018-06-03T22:19:36.293Z,5.10
2018-06-03T22:22:12.294Z,5.37
2018-06-03T22:24:43.358Z,6.87
2018-06-03T22:27:13.272Z,10.90
2018-06-03T22:29:46.201Z,17.07
2018-06-03T22:32:19.013Z,10.90
2018-06-03T22:34:48.487Z,13.03
2018-06-03T22:37:17.598Z,8.23
2018-06-03T22:39:48.431Z,6.40
2018-06-03T22:42:17.542Z,6.33
2018-06-03T22:44:56.825Z,8.27
2018-06-03T22:47:25.505Z,20.20
2018-06-03T22:49:53.974Z,9.73
2018-06-03T22:52:28.514Z,6.23
2018-06-03T22:54:58.536Z,8.30
2018-06-03T22:57:54.776Z,6.60
2018-06-03T23:00:31.746Z,6.53
2018-06-03T23:03:12.253Z,7.10
2018-06-03T23:05:46.446Z,8.03
2018-06-03T23:08:19.636Z,6.90
2018-06-03T23:10:52.345Z,6.43
2018-06-03T23:13:24.123Z,6.97
2018-06-03T23:15:57.513Z,9.60
2018-06-03T23:18:28.210Z,8.23
2018-06-03T23:21:01.490Z,7.23
2018-06-03T23:23:33.332Z,8.67
2018-06-03T23:26:05.509Z,10.30
2018-06-03T23:28:34.034Z,8.47
2018-06-03T23:31:02.618Z,8.27
2018-06-03T23:33:31.087Z,6.33
2018-06-03T23:35:59.594Z,8.73
2018-06-03T23:38:28.074Z,10.23
2018-06-03T23:40:56.552Z,12.67
2018-06-03T23:43:25.053Z,11.00
2018-06-03T23:45:53.527Z,10.77
2018-06-03T23:48:22.027Z,10.90
2018-06-03T23:50:51.551Z,8.23
2018-06-03T23:53:20.075Z,7.60
2018-06-03T23:55:48.605Z,10.30
2018-06-03T23:58:17.106Z,22.50
